sensor_id;sensor_type;location;lat;lon;timestamp;pressure;altitude;pressure_sealevel;temperature;humidity
21742;BME280;11033;47.490;11.116;2023-02-21T00:01:15;93655.69;;;4.26;59.51
21742;BME280;11033;47.490;11.116;2023-02-21T00:03:59;93659.66;;;4.30;58.63
21742;BME280;11033;47.490;11.116;2023-02-21T00:06:44;93655.69;;;4.26;57.97
21742;BME280;11033;47.490;11.116;2023-02-21T00:09:28;93649.69;;;4.16;58.45
21742;BME280;11033;47.490;11.116;2023-02-21T00:12:12;93650.22;;;4.10;59.36
21742;BME280;11033;47.490;11.116;2023-02-21T00:14:55;93651.47;;;3.96;58.79
21742;BME280;11033;47.490;11.116;2023-02-21T00:17:39;93654.91;;;3.97;59.81
21742;BME280;11033;47.490;11.116;2023-02-21T00:20:23;93651.75;;;3.93;59.31
21742;BME280;11033;47.490;11.116;2023-02-21T00:23:08;93655.69;;;3.88;59.94
21742;BME280;11033;47.490;11.116;2023-02-21T00:25:52;93649.41;;;3.80;58.83
21742;BME280;11033;47.490;11.116;2023-02-21T00:28:36;93650.34;;;3.70;60.15
21742;BME280;11033;47.490;11.116;2023-02-21T00:31:20;93654.06;;;3.87;59.16
21742;BME280;11033;47.490;11.116;2023-02-21T00:34:04;93660.06;;;3.58;60.81
21742;BME280;11033;47.490;11.116;2023-02-21T00:36:48;93649.66;;;3.58;60.44
21742;BME280;11033;47.490;11.116;2023-02-21T00:39:32;93654.59;;;3.52;60.90
21742;BME280;11033;47.490;11.116;2023-02-21T00:42:15;93651.84;;;3.53;60.76
21742;BME280;11033;47.490;11.116;2023-02-21T00:44:59;93651.03;;;3.62;60.48
21742;BME280;11033;47.490;11.116;2023-02-21T00:47:43;93656.22;;;3.43;60.98
21742;BME280;11033;47.490;11.116;2023-02-21T00:50:27;93659.50;;;3.45;60.42
21742;BME280;11033;47.490;11.116;2023-02-21T00:53:11;93653.22;;;3.47;59.93
21742;BME280;11033;47.490;11.116;2023-02-21T00:55:55;93649.50;;;3.50;60.19
21742;BME280;11033;47.490;11.116;2023-02-21T00:58:39;93658.69;;;3.44;60.24
21742;BME280;11033;47.490;11.116;2023-02-21T01:01:23;93658.13;;;3.41;61.07
21742;BME280;11033;47.490;11.116;2023-02-21T01:04:07;93654.84;;;3.39;60.00
21742;BME280;11033;47.490;11.116;2023-02-21T01:06:51;93657.72;;;3.36;59.39
21742;BME280;11033;47.490;11.116;2023-02-21T01:09:35;93654.56;;;3.32;59.41
21742;BME280;11033;47.490;11.116;2023-02-21T01:12:19;93650.94;;;3.24;59.81
21742;BME280;11033;47.490;11.116;2023-02-21T01:15:03;93644.50;;;3.18;59.94
21742;BME280;11033;47.490;11.116;2023-02-21T01:17:46;93647.22;;;3.16;60.35
21742;BME280;11033;47.490;11.116;2023-02-21T01:20:30;93636.53;;;3.10;61.21
21742;BME280;11033;47.490;11.116;2023-02-21T01:23:14;93631.88;;;3.04;60.84
21742;BME280;11033;47.490;11.116;2023-02-21T01:25:58;93630.78;;;3.06;60.33
21742;BME280;11033;47.490;11.116;2023-02-21T01:28:42;93627.91;;;3.09;59.99
21742;BME280;11033;47.490;11.116;2023-02-21T01:31:26;93622.41;;;3.03;60.32
21742;BME280;11033;47.490;11.116;2023-02-21T01:34:10;93623.78;;;2.97;62.13
21742;BME280;11033;47.490;11.116;2023-02-21T01:36:54;93624.56;;;2.88;63.13
21742;BME280;11033;47.490;11.116;2023-02-21T01:39:38;93613.19;;;2.89;62.79
21742;BME280;11033;47.490;11.116;2023-02-21T01:42:22;93614.16;;;2.88;62.08
21742;BME280;11033;47.490;11.116;2023-02-21T01:48:12;93605.19;;;3.11;61.49
21742;BME280;11033;47.490;11.116;2023-02-21T01:50:58;93599.13;;;3.01;62.31
21742;BME280;11033;47.490;11.116;2023-02-21T01:53:43;93596.78;;;2.89;63.43
21742;BME280;11033;47.490;11.116;2023-02-21T01:56:27;93604.88;;;2.95;62.99
21742;BME280;11033;47.490;11.116;2023-02-21T01:59:12;93598.28;;;2.91;63.64
21742;BME280;11033;47.490;11.116;2023-02-21T02:02:05;93601.19;;;2.98;62.67
21742;BME280;11033;47.490;11.116;2023-02-21T02:04:53;93589.84;;;3.08;61.40
21742;BME280;11033;47.490;11.116;2023-02-21T02:07:37;93595.84;;;2.99;61.64
21742;BME280;11033;47.490;11.116;2023-02-21T02:10:22;93598.84;;;2.95;62.50
21742;BME280;11033;47.490;11.116;2023-02-21T02:13:21;93586.81;;;3.03;61.44
21742;BME280;11033;47.490;11.116;2023-02-21T02:16:02;93587.06;;;2.91;61.70
21742;BME280;11033;47.490;11.116;2023-02-21T02:18:47;93582.66;;;2.81;62.52
21742;BME280;11033;47.490;11.116;2023-02-21T02:32:28;93577.44;;;2.72;63.34
21742;BME280;11033;47.490;11.116;2023-02-21T02:40:40;93560.91;;;2.82;62.75
21742;BME280;11033;47.490;11.116;2023-02-21T02:43:29;93565.16;;;2.93;61.06
21742;BME280;11033;47.490;11.116;2023-02-21T02:49:08;93563.09;;;2.87;61.38
21742;BME280;11033;47.490;11.116;2023-02-21T02:51:34;93567.31;;;2.78;62.74
21742;BME280;11033;47.490;11.116;2023-02-21T02:54:01;93555.53;;;2.74;62.59
21742;BME280;11033;47.490;11.116;2023-02-21T02:56:26;93560.31;;;2.69;62.69
21742;BME280;11033;47.490;11.116;2023-02-21T02:58:57;93557.19;;;2.75;61.35
21742;BME280;11033;47.490;11.116;2023-02-21T03:04:15;93549.09;;;2.69;62.52
21742;BME280;11033;47.490;11.116;2023-02-21T03:10:26;93555.81;;;2.81;60.40
21742;BME280;11033;47.490;11.116;2023-02-21T03:13:02;93548.41;;;2.67;63.22
21742;BME280;11033;47.490;11.116;2023-02-21T03:20:53;93551.00;;;2.67;62.97
21742;BME280;11033;47.490;11.116;2023-02-21T03:23:21;93551.53;;;2.61;63.35
21742;BME280;11033;47.490;11.116;2023-02-21T03:25:50;93550.75;;;2.39;63.05
21742;BME280;11033;47.490;11.116;2023-02-21T03:28:17;93542.31;;;2.57;61.83
21742;BME280;11033;47.490;11.116;2023-02-21T03:30:43;93545.44;;;2.50;61.32
21742;BME280;11033;47.490;11.116;2023-02-21T03:33:10;93537.63;;;2.41;63.30
21742;BME280;11033;47.490;11.116;2023-02-21T03:35:35;93543.84;;;2.59;61.88
21742;BME280;11033;47.490;11.116;2023-02-21T03:38:01;93536.81;;;2.50;62.41
21742;BME280;11033;47.490;11.116;2023-02-21T03:40:29;93539.44;;;2.50;61.55
21742;BME280;11033;47.490;11.116;2023-02-21T03:42:56;93543.13;;;2.47;62.85
21742;BME280;11033;47.490;11.116;2023-02-21T03:45:21;93540.03;;;2.63;61.80
21742;BME280;11033;47.490;11.116;2023-02-21T03:47:47;93538.44;;;2.41;63.27
21742;BME280;11033;47.490;11.116;2023-02-21T03:50:13;93538.19;;;2.44;62.42
21742;BME280;11033;47.490;11.116;2023-02-21T03:52:38;93538.97;;;2.35;63.85
21742;BME280;11033;47.490;11.116;2023-02-21T03:55:05;93535.38;;;2.27;64.14
21742;BME280;11033;47.490;11.116;2023-02-21T03:57:30;93547.72;;;2.34;63.47
21742;BME280;11033;47.490;11.116;2023-02-21T03:59:56;93546.34;;;2.30;63.30
21742;BME280;11033;47.490;11.116;2023-02-21T04:02:21;93558.38;;;2.31;63.71
21742;BME280;11033;47.490;11.116;2023-02-21T04:04:46;93559.88;;;2.34;63.65
21742;BME280;11033;47.490;11.116;2023-02-21T04:07:14;93565.22;;;2.32;63.84
21742;BME280;11033;47.490;11.116;2023-02-21T04:09:39;93559.06;;;2.33;62.95
21742;BME280;11033;47.490;11.116;2023-02-21T04:12:05;93573.00;;;2.32;62.63
21742;BME280;11033;47.490;11.116;2023-02-21T04:14:30;93567.38;;;2.27;62.90
21742;BME280;11033;47.490;11.116;2023-02-21T04:16:56;93565.22;;;2.32;63.17
21742;BME280;11033;47.490;11.116;2023-02-21T04:19:21;93562.06;;;2.29;63.25
21742;BME280;11033;47.490;11.116;2023-02-21T04:21:47;93559.69;;;2.16;62.58
21742;BME280;11033;47.490;11.116;2023-02-21T04:24:12;93567.16;;;2.09;64.27
21742;BME280;11033;47.490;11.116;2023-02-21T04:26:37;93563.19;;;2.05;62.83
21742;BME280;11033;47.490;11.116;2023-02-21T04:29:03;93562.34;;;2.05;62.99
21742;BME280;11033;47.490;11.116;2023-02-21T04:31:28;93561.66;;;2.03;62.10
21742;BME280;11033;47.490;11.116;2023-02-21T04:33:54;93554.81;;;2.02;63.70
21742;BME280;11033;47.490;11.116;2023-02-21T04:36:19;93559.38;;;2.09;62.13
21742;BME280;11033;47.490;11.116;2023-02-21T04:38:44;93560.44;;;2.07;61.04
21742;BME280;11033;47.490;11.116;2023-02-21T04:41:10;93564.25;;;2.03;62.34
21742;BME280;11033;47.490;11.116;2023-02-21T04:43:35;93558.38;;;2.01;63.09
21742;BME280;11033;47.490;11.116;2023-02-21T04:46:00;93562.63;;;2.02;63.68
21742;BME280;11033;47.490;11.116;2023-02-21T04:48:25;93570.84;;;2.07;62.53
21742;BME280;11033;47.490;11.116;2023-02-21T04:50:51;93570.59;;;2.10;62.77
21742;BME280;11033;47.490;11.116;2023-02-21T04:53:16;93569.19;;;2.06;62.39
21742;BME280;11033;47.490;11.116;2023-02-21T04:55:42;93569.03;;;1.98;63.73
21742;BME280;11033;47.490;11.116;2023-02-21T04:58:07;93562.94;;;2.08;62.25
21742;BME280;11033;47.490;11.116;2023-02-21T05:00:32;93567.25;;;1.98;63.63
21742;BME280;11033;47.490;11.116;2023-02-21T05:02:58;93574.66;;;2.03;63.13
21742;BME280;11033;47.490;11.116;2023-02-21T05:05:23;93574.81;;;1.90;63.31
21742;BME280;11033;47.490;11.116;2023-02-21T05:07:49;93569.88;;;1.87;62.89
21742;BME280;11033;47.490;11.116;2023-02-21T05:10:17;93573.75;;;1.92;62.31
21742;BME280;11033;47.490;11.116;2023-02-21T05:12:43;93576.16;;;1.84;63.72
21742;BME280;11033;47.490;11.116;2023-02-21T05:15:10;93567.16;;;1.88;62.92
21742;BME280;11033;47.490;11.116;2023-02-21T05:17:36;93563.25;;;1.73;63.74
21742;BME280;11033;47.490;11.116;2023-02-21T05:20:02;93557.53;;;1.79;63.71
21742;BME280;11033;47.490;11.116;2023-02-21T05:22:27;93566.53;;;1.75;63.98
21742;BME280;11033;47.490;11.116;2023-02-21T05:24:53;93568.69;;;1.70;63.83
21742;BME280;11033;47.490;11.116;2023-02-21T05:27:20;93555.00;;;1.68;63.93
21742;BME280;11033;47.490;11.116;2023-02-21T05:29:52;93560.13;;;1.58;64.75
21742;BME280;11033;47.490;11.116;2023-02-21T05:32:19;93558.50;;;1.78;63.74
21742;BME280;11033;47.490;11.116;2023-02-21T05:34:44;93553.44;;;1.77;62.60
21742;BME280;11033;47.490;11.116;2023-02-21T05:37:16;93565.91;;;1.83;63.05
21742;BME280;11033;47.490;11.116;2023-02-21T05:39:42;93563.34;;;1.92;62.21
21742;BME280;11033;47.490;11.116;2023-02-21T05:42:07;93567.16;;;1.88;63.29
21742;BME280;11033;47.490;11.116;2023-02-21T05:44:33;93569.16;;;1.96;61.76
21742;BME280;11033;47.490;11.116;2023-02-21T05:46:58;93572.59;;;1.85;63.45
21742;BME280;11033;47.490;11.116;2023-02-21T05:49:24;93568.06;;;1.99;62.12
21742;BME280;11033;47.490;11.116;2023-02-21T05:51:50;93569.75;;;1.88;63.43
21742;BME280;11033;47.490;11.116;2023-02-21T05:54:17;93569.06;;;1.86;64.07
21742;BME280;11033;47.490;11.116;2023-02-21T05:56:45;93571.22;;;1.81;63.54
21742;BME280;11033;47.490;11.116;2023-02-21T05:59:12;93569.06;;;1.86;62.89
21742;BME280;11033;47.490;11.116;2023-02-21T06:01:38;93564.06;;;1.74;64.82
21742;BME280;11033;47.490;11.116;2023-02-21T06:04:04;93563.00;;;1.76;64.41
21742;BME280;11033;47.490;11.116;2023-02-21T06:06:32;93569.56;;;1.80;63.25
21742;BME280;11033;47.490;11.116;2023-02-21T06:08:57;93556.16;;;1.75;63.06
21742;BME280;11033;47.490;11.116;2023-02-21T06:11:25;93564.63;;;1.77;63.48
21742;BME280;11033;47.490;11.116;2023-02-21T06:13:53;93557.13;;;1.95;60.88
21742;BME280;11033;47.490;11.116;2023-02-21T06:16:19;93561.59;;;1.72;63.25
21742;BME280;11033;47.490;11.116;2023-02-21T06:18:44;93558.22;;;1.81;62.36
21742;BME280;11033;47.490;11.116;2023-02-21T06:21:13;93562.72;;;1.79;62.65
21742;BME280;11033;47.490;11.116;2023-02-21T06:23:38;93556.16;;;1.75;61.81
21742;BME280;11033;47.490;11.116;2023-02-21T06:26:03;93566.84;;;1.82;61.80
21742;BME280;11033;47.490;11.116;2023-02-21T06:28:29;93566.28;;;1.78;63.34
21742;BME280;11033;47.490;11.116;2023-02-21T06:30:55;93564.13;;;1.83;63.40
21742;BME280;11033;47.490;11.116;2023-02-21T06:33:20;93557.28;;;1.82;62.18
21742;BME280;11033;47.490;11.116;2023-02-21T06:35:45;93571.47;;;1.78;64.04
21742;BME280;11033;47.490;11.116;2023-02-21T06:38:11;93576.41;;;1.81;63.27
21742;BME280;11033;47.490;11.116;2023-02-21T06:40:36;93571.16;;;1.92;62.72
21742;BME280;11033;47.490;11.116;2023-02-21T06:43:01;93568.56;;;1.92;62.82
21742;BME280;11033;47.490;11.116;2023-02-21T06:45:26;93578.75;;;1.84;63.92
21742;BME280;11033;47.490;11.116;2023-02-21T06:47:52;93573.94;;;1.80;64.71
21742;BME280;11033;47.490;11.116;2023-02-21T06:50:17;93582.31;;;1.83;63.81
21742;BME280;11033;47.490;11.116;2023-02-21T06:52:42;93580.41;;;1.85;64.13
21742;BME280;11033;47.490;11.116;2023-02-21T06:55:07;93577.09;;;1.83;63.91
21742;BME280;11033;47.490;11.116;2023-02-21T06:57:33;93583.00;;;1.85;63.63
21742;BME280;11033;47.490;11.116;2023-02-21T06:59:58;93578.50;;;1.87;64.08
21742;BME280;11033;47.490;11.116;2023-02-21T07:02:23;93574.91;;;2.00;63.04
21742;BME280;11033;47.490;11.116;2023-02-21T07:04:49;93574.00;;;1.89;63.60
21742;BME280;11033;47.490;11.116;2023-02-21T07:07:15;93578.91;;;2.04;63.08
21742;BME280;11033;47.490;11.116;2023-02-21T07:09:40;93581.53;;;2.13;62.09
21742;BME280;11033;47.490;11.116;2023-02-21T07:12:06;93579.06;;;2.12;62.70
21742;BME280;11033;47.490;11.116;2023-02-21T07:14:32;93570.31;;;2.13;62.29
21742;BME280;11033;47.490;11.116;2023-02-21T07:16:58;93570.31;;;2.13;62.17
21742;BME280;11033;47.490;11.116;2023-02-21T07:19:23;93572.41;;;2.19;62.07
21742;BME280;11033;47.490;11.116;2023-02-21T07:21:49;93575.25;;;2.16;62.90
21742;BME280;11033;47.490;11.116;2023-02-21T07:24:14;93566.94;;;2.22;62.70
21742;BME280;11033;47.490;11.116;2023-02-21T07:26:40;93575.63;;;2.32;61.62
21742;BME280;11033;47.490;11.116;2023-02-21T07:29:05;93570.69;;;2.29;62.23
21742;BME280;11033;47.490;11.116;2023-02-21T07:31:31;93568.25;;;2.37;62.48
21742;BME280;11033;47.490;11.116;2023-02-21T07:33:56;93566.13;;;2.52;62.39
21742;BME280;11033;47.490;11.116;2023-02-21T07:36:22;93563.91;;;2.47;62.95
21742;BME280;11033;47.490;11.116;2023-02-21T07:38:47;93576.34;;;2.44;63.20
21742;BME280;11033;47.490;11.116;2023-02-21T07:41:13;93572.13;;;2.52;62.81
21742;BME280;11033;47.490;11.116;2023-02-21T07:43:39;93567.56;;;2.66;60.89
21742;BME280;11033;47.490;11.116;2023-02-21T07:46:08;93569.19;;;2.67;62.81
21742;BME280;11033;47.490;11.116;2023-02-21T07:48:34;93572.78;;;2.75;61.64
21742;BME280;11033;47.490;11.116;2023-02-21T07:50:59;93565.66;;;2.77;60.71
21742;BME280;11033;47.490;11.116;2023-02-21T07:53:25;93563.34;;;2.84;61.00
21742;BME280;11033;47.490;11.116;2023-02-21T07:55:50;93562.13;;;2.88;61.68
21742;BME280;11033;47.490;11.116;2023-02-21T07:58:15;93562.97;;;2.98;60.99
21742;BME280;11033;47.490;11.116;2023-02-21T08:00:41;93558.19;;;3.03;61.02
21742;BME280;11033;47.490;11.116;2023-02-21T08:03:06;93566.84;;;3.13;61.03
21742;BME280;11033;47.490;11.116;2023-02-21T08:05:33;93568.19;;;3.17;61.83
21742;BME280;11033;47.490;11.116;2023-02-21T08:07:59;93567.84;;;3.32;59.92
21742;BME280;11033;47.490;11.116;2023-02-21T08:10:26;93566.34;;;3.39;60.91
21742;BME280;11033;47.490;11.116;2023-02-21T08:12:51;93566.06;;;3.42;60.16
21742;BME280;11033;47.490;11.116;2023-02-21T08:15:17;93564.56;;;3.49;59.20
21742;BME280;11033;47.490;11.116;2023-02-21T08:17:43;93563.03;;;3.56;59.47
21742;BME280;11033;47.490;11.116;2023-02-21T08:20:08;93557.28;;;3.62;59.01
21742;BME280;11033;47.490;11.116;2023-02-21T08:22:36;93553.41;;;3.76;59.34
21742;BME280;11033;47.490;11.116;2023-02-21T08:25:01;93561.38;;;3.84;59.26
21742;BME280;11033;47.490;11.116;2023-02-21T08:27:26;93554.53;;;3.93;58.52
21742;BME280;11033;47.490;11.116;2023-02-21T08:29:52;93550.94;;;4.03;58.43
21742;BME280;11033;47.490;11.116;2023-02-21T08:32:18;93551.88;;;4.12;58.06
21742;BME280;11033;47.490;11.116;2023-02-21T08:34:45;93551.59;;;4.15;58.50
21742;BME280;11033;47.490;11.116;2023-02-21T08:37:10;93548.91;;;4.34;57.70
21742;BME280;11033;47.490;11.116;2023-02-21T08:39:51;93550.00;;;4.41;57.58
21742;BME280;11033;47.490;11.116;2023-02-21T08:42:20;93543.50;;;4.55;56.74
21742;BME280;11033;47.490;11.116;2023-02-21T08:44:46;93538.91;;;4.67;57.81
21742;BME280;11033;47.490;11.116;2023-02-21T08:47:13;93539.19;;;4.91;57.36
21742;BME280;11033;47.490;11.116;2023-02-21T08:49:38;93537.56;;;4.90;56.97
21742;BME280;11033;47.490;11.116;2023-02-21T08:52:06;93546.63;;;5.14;57.02
21742;BME280;11033;47.490;11.116;2023-02-21T08:54:32;93539.56;;;5.24;56.65
21742;BME280;11033;47.490;11.116;2023-02-21T08:56:57;93537.25;;;5.56;55.93
21742;BME280;11033;47.490;11.116;2023-02-21T08:59:24;93534.47;;;5.76;55.15
21742;BME280;11033;47.490;11.116;2023-02-21T09:01:49;93533.19;;;5.80;55.09
21742;BME280;11033;47.490;11.116;2023-02-21T09:04:14;93530.50;;;6.07;55.03
21742;BME280;11033;47.490;11.116;2023-02-21T09:06:40;93526.09;;;6.33;55.18
21742;BME280;11033;47.490;11.116;2023-02-21T09:09:05;93521.81;;;6.58;54.29
21742;BME280;11033;47.490;11.116;2023-02-21T09:11:30;93523.38;;;6.77;54.25
21742;BME280;11033;47.490;11.116;2023-02-21T09:13:55;93522.47;;;7.03;53.97
21742;BME280;11033;47.490;11.116;2023-02-21T09:16:21;93512.91;;;7.36;53.20
21742;BME280;11033;47.490;11.116;2023-02-21T09:18:57;93519.66;;;7.79;52.19
21742;BME280;11033;47.490;11.116;2023-02-21T09:21:23;93516.41;;;8.09;50.66
21742;BME280;11033;47.490;11.116;2023-02-21T09:23:51;93517.03;;;8.27;49.77
21742;BME280;11033;47.490;11.116;2023-02-21T09:26:17;93516.38;;;8.50;48.96
21742;BME280;11033;47.490;11.116;2023-02-21T09:28:42;93506.91;;;8.80;46.92
21742;BME280;11033;47.490;11.116;2023-02-21T09:31:09;93506.63;;;9.14;48.35
21742;BME280;11033;47.490;11.116;2023-02-21T09:33:37;93505.13;;;9.42;46.77
21742;BME280;11033;47.490;11.116;2023-02-21T09:36:06;93503.63;;;9.71;46.77
21742;BME280;11033;47.490;11.116;2023-02-21T09:38:32;93503.19;;;9.90;44.67
21742;BME280;11033;47.490;11.116;2023-02-21T09:41:01;93497.06;;;10.12;42.95
21742;BME280;11033;47.490;11.116;2023-02-21T09:43:33;93488.84;;;10.30;44.44
21742;BME280;11033;47.490;11.116;2023-02-21T09:46:05;93485.81;;;10.71;44.83
21742;BME280;11033;47.490;11.116;2023-02-21T09:48:32;93483.97;;;10.86;40.56
21742;BME280;11033;47.490;11.116;2023-02-21T09:51:04;93477.06;;;11.15;45.08
21742;BME280;11033;47.490;11.116;2023-02-21T09:53:34;93486.34;;;11.47;43.20
21742;BME280;11033;47.490;11.116;2023-02-21T09:56:33;93480.50;;;11.87;41.66
21742;BME280;11033;47.490;11.116;2023-02-21T09:59:00;93474.81;;;12.12;41.77
21742;BME280;11033;47.490;11.116;2023-02-21T10:01:46;93482.06;;;12.31;44.16
21742;BME280;11033;47.490;11.116;2023-02-21T10:07:46;93481.56;;;13.11;40.56
21742;BME280;11033;47.490;11.116;2023-02-21T10:12:56;93480.56;;;13.60;38.46
21742;BME280;11033;47.490;11.116;2023-02-21T10:15:33;93469.66;;;14.22;35.87
21742;BME280;11033;47.490;11.116;2023-02-21T10:18:04;93473.75;;;14.65;37.17
21742;BME280;11033;47.490;11.116;2023-02-21T10:20:36;93463.53;;;14.75;33.25
21742;BME280;11033;47.490;11.116;2023-02-21T10:23:13;93461.88;;;15.45;33.34
21742;BME280;11033;47.490;11.116;2023-02-21T10:25:44;93463.53;;;15.91;35.46
21742;BME280;11033;47.490;11.116;2023-02-21T10:28:17;93456.31;;;16.29;33.76
21742;BME280;11033;47.490;11.116;2023-02-21T10:30:43;93457.38;;;16.96;32.50
21742;BME280;11033;47.490;11.116;2023-02-21T10:33:10;93454.50;;;16.48;29.49
21742;BME280;11033;47.490;11.116;2023-02-21T10:35:37;93454.91;;;17.50;28.69
21742;BME280;11033;47.490;11.116;2023-02-21T10:38:07;93451.47;;;18.09;29.64
21742;BME280;11033;47.490;11.116;2023-02-21T10:40:45;93447.22;;;18.96;29.88
21742;BME280;11033;47.490;11.116;2023-02-21T10:43:14;93446.47;;;19.24;29.88
21742;BME280;11033;47.490;11.116;2023-02-21T10:45:44;93439.53;;;19.75;30.19
21742;BME280;11033;47.490;11.116;2023-02-21T10:48:12;93430.34;;;20.00;28.03
21742;BME280;11033;47.490;11.116;2023-02-21T10:50:43;93428.97;;;18.82;25.71
21742;BME280;11033;47.490;11.116;2023-02-21T10:53:40;93430.25;;;20.23;26.96
21742;BME280;11033;47.490;11.116;2023-02-21T10:59:02;93424.72;;;21.52;25.10
21742;BME280;11033;47.490;11.116;2023-02-21T11:01:37;93417.72;;;21.73;26.47
21742;BME280;11033;47.490;11.116;2023-02-21T11:04:28;93414.63;;;21.20;24.07
21742;BME280;11033;47.490;11.116;2023-02-21T11:06:58;93403.44;;;21.94;24.06
21742;BME280;11033;47.490;11.116;2023-02-21T11:12:00;93391.09;;;23.26;25.01
21742;BME280;11033;47.490;11.116;2023-02-21T11:14:26;93384.44;;;22.87;23.65
21742;BME280;11033;47.490;11.116;2023-02-21T11:17:23;93380.69;;;24.23;23.26
21742;BME280;11033;47.490;11.116;2023-02-21T11:22:38;93368.34;;;24.32;22.13
21742;BME280;11033;47.490;11.116;2023-02-21T11:30:36;93363.50;;;24.29;25.05
21742;BME280;11033;47.490;11.116;2023-02-21T11:33:03;93353.91;;;25.43;23.45
21742;BME280;11033;47.490;11.116;2023-02-21T11:35:34;93349.25;;;25.64;24.27
21742;BME280;11033;47.490;11.116;2023-02-21T11:38:07;93342.25;;;23.45;21.97
21742;BME280;11033;47.490;11.116;2023-02-21T11:40:50;93342.34;;;25.38;23.78
21742;BME280;11033;47.490;11.116;2023-02-21T11:43:26;93338.09;;;23.99;20.84
21742;BME280;11033;47.490;11.116;2023-02-21T11:48:19;93330.59;;;26.56;22.58
21742;BME280;11033;47.490;11.116;2023-02-21T11:50:52;93324.03;;;26.28;23.76
21742;BME280;11033;47.490;11.116;2023-02-21T11:53:25;93323.47;;;25.92;21.42
21742;BME280;11033;47.490;11.116;2023-02-21T12:01:13;93305.72;;;26.20;21.55
21742;BME280;11033;47.490;11.116;2023-02-21T12:03:52;93298.97;;;26.57;21.17
21742;BME280;11033;47.490;11.116;2023-02-21T12:09:09;93289.84;;;26.47;20.68
21742;BME280;11033;47.490;11.116;2023-02-21T12:25:34;93273.22;;;25.52;21.22
21742;BME280;11033;47.490;11.116;2023-02-21T12:31:32;93254.69;;;24.15;21.44
21742;BME280;11033;47.490;11.116;2023-02-21T12:39:45;93244.09;;;24.79;21.23
21742;BME280;11033;47.490;11.116;2023-02-21T12:45:01;93230.31;;;27.29;21.00
21742;BME280;11033;47.490;11.116;2023-02-21T12:47:29;93226.88;;;26.76;19.71
21742;BME280;11033;47.490;11.116;2023-02-21T12:50:00;93224.72;;;26.49;20.52
21742;BME280;11033;47.490;11.116;2023-02-21T12:52:34;93217.53;;;28.10;22.32
21742;BME280;11033;47.490;11.116;2023-02-21T12:55:04;93215.63;;;27.92;19.87
21742;BME280;11033;47.490;11.116;2023-02-21T13:00:37;93207.50;;;29.44;21.04
21742;BME280;11033;47.490;11.116;2023-02-21T13:05:48;93203.63;;;28.63;21.31
21742;BME280;11033;47.490;11.116;2023-02-21T13:08:27;93192.19;;;28.66;20.37
21742;BME280;11033;47.490;11.116;2023-02-21T13:14:22;93191.66;;;29.82;20.48
21742;BME280;11033;47.490;11.116;2023-02-21T13:16:47;93177.13;;;30.76;21.37
21742;BME280;11033;47.490;11.116;2023-02-21T13:19:13;93173.53;;;31.07;19.35
21742;BME280;11033;47.490;11.116;2023-02-21T13:25:33;93165.94;;;29.80;19.61
21742;BME280;11033;47.490;11.116;2023-02-21T13:28:10;93159.63;;;30.38;19.89
21742;BME280;11033;47.490;11.116;2023-02-21T13:30:40;93156.72;;;31.05;18.38
21742;BME280;11033;47.490;11.116;2023-02-21T13:33:23;93152.78;;;29.23;19.36
21742;BME280;11033;47.490;11.116;2023-02-21T13:35:49;93152.44;;;30.42;19.68
21742;BME280;11033;47.490;11.116;2023-02-21T13:38:17;93155.28;;;29.47;20.05
21742;BME280;11033;47.490;11.116;2023-02-21T13:40:53;93154.81;;;30.04;19.24
21742;BME280;11033;47.490;11.116;2023-02-21T13:43:32;93144.28;;;30.42;21.06
21742;BME280;11033;47.490;11.116;2023-02-21T13:57:41;93121.38;;;30.34;19.63
21742;BME280;11033;47.490;11.116;2023-02-21T14:06:14;93114.19;;;29.85;18.78
21742;BME280;11033;47.490;11.116;2023-02-21T14:08:48;93107.41;;;29.96;19.53
21742;BME280;11033;47.490;11.116;2023-02-21T14:11:19;93116.59;;;28.18;19.32
21742;BME280;11033;47.490;11.116;2023-02-21T14:18:40;93103.09;;;28.59;19.07
21742;BME280;11033;47.490;11.116;2023-02-21T14:21:09;93099.09;;;29.20;18.88
21742;BME280;11033;47.490;11.116;2023-02-21T14:23:41;93093.75;;;28.79;19.06
21742;BME280;11033;47.490;11.116;2023-02-21T14:29:28;93090.00;;;29.52;18.95
21742;BME280;11033;47.490;11.116;2023-02-21T14:31:55;93085.47;;;29.12;20.23
21742;BME280;11033;47.490;11.116;2023-02-21T14:37:00;93083.59;;;29.48;19.83
21742;BME280;11033;47.490;11.116;2023-02-21T14:39:33;93088.13;;;28.89;19.20
21742;BME280;11033;47.490;11.116;2023-02-21T14:50:29;93074.38;;;28.72;19.53
21742;BME280;11033;47.490;11.116;2023-02-21T14:58:58;93075.88;;;28.37;19.70
21742;BME280;11033;47.490;11.116;2023-02-21T15:04:38;93064.75;;;29.16;20.39
21742;BME280;11033;47.490;11.116;2023-02-21T15:09:43;93061.41;;;28.96;20.47
21742;BME280;11033;47.490;11.116;2023-02-21T15:12:14;93054.31;;;27.21;19.63
21742;BME280;11033;47.490;11.116;2023-02-21T15:14:47;93056.50;;;28.44;20.56
21742;BME280;11033;47.490;11.116;2023-02-21T15:17:20;93048.75;;;28.78;20.33
21742;BME280;11033;47.490;11.116;2023-02-21T15:19:46;93055.34;;;29.35;20.32
21742;BME280;11033;47.490;11.116;2023-02-21T15:22:21;93057.69;;;28.79;20.17
21742;BME280;11033;47.490;11.116;2023-02-21T15:27:37;93057.00;;;28.87;20.26
21742;BME280;11033;47.490;11.116;2023-02-21T15:32:28;93054.97;;;27.96;21.76
21742;BME280;11033;47.490;11.116;2023-02-21T15:34:54;93054.19;;;28.51;21.26
21742;BME280;11033;47.490;11.116;2023-02-21T15:37:22;93063.25;;;28.32;19.87
21742;BME280;11033;47.490;11.116;2023-02-21T15:39:54;93059.94;;;27.75;21.52
21742;BME280;11033;47.490;11.116;2023-02-21T15:42:21;93059.84;;;26.73;21.57
21742;BME280;11033;47.490;11.116;2023-02-21T15:44:52;93054.59;;;27.38;20.34
21742;BME280;11033;47.490;11.116;2023-02-21T15:47:21;93057.72;;;26.70;21.47
21742;BME280;11033;47.490;11.116;2023-02-21T15:52:40;93066.47;;;27.56;21.16
21742;BME280;11033;47.490;11.116;2023-02-21T15:55:28;93066.78;;;26.79;21.23
21742;BME280;11033;47.490;11.116;2023-02-21T15:58:01;93071.94;;;24.73;21.37